Time;durP1;ratioP1;P1;durP2;ratioP2;P2;SDS_P1;SDS_P2;PMS_P1;PMS_P2;Temp;Humidity;BMP_temperature;BMP_pressure;BME280_temperature;BME280_humidity;BME280_pressure;Samples;Min_cycle;Max_cycle;Signal;HPM_P1;HPM_P2
2022/07/11 00:02:22;;;;;;;1.82;1.72;;;19.60;65.80;;;;;;939132;149;27383;-76
2022/07/11 00:04:48;;;;;;;3.05;1.90;;;19.60;66.00;;;;;;937701;149;27340;-77
2022/07/11 00:07:15;;;;;;;2.10;2.00;;;19.60;66.10;;;;;;932516;150;27289;-76
2022/07/11 00:09:41;;;;;;;2.65;2.30;;;19.50;66.10;;;;;;934465;152;27358;-77
2022/07/11 00:12:08;;;;;;;1.82;1.72;;;19.50;66.40;;;;;;931792;150;27313;-77
2022/07/11 00:14:35;;;;;;;2.20;1.92;;;19.40;66.60;;;;;;932038;152;27446;-77
2022/07/11 00:17:01;;;;;;;2.27;2.05;;;19.40;66.80;;;;;;922547;154;27347;-77
2022/07/11 00:19:28;;;;;;;2.50;2.22;;;19.40;67.00;;;;;;945326;149;27366;-77
2022/07/11 00:21:54;;;;;;;2.22;2.02;;;19.40;67.20;;;;;;940690;151;27306;-77
2022/07/11 00:24:21;;;;;;;2.25;1.90;;;19.40;67.30;;;;;;939545;148;27393;-77
2022/07/11 00:26:48;;;;;;;2.15;2.05;;;19.40;67.40;;;;;;924479;152;27380;-77
2022/07/11 00:29:14;;;;;;;2.00;1.90;;;19.40;67.40;;;;;;923090;154;27367;-78
2022/07/11 00:31:41;;;;;;;2.58;2.37;;;19.40;67.50;;;;;;922854;154;27328;-78
2022/07/11 00:34:07;;;;;;;2.20;2.00;;;19.40;67.60;;;;;;922377;154;27344;-78
2022/07/11 00:36:34;;;;;;;2.30;2.20;;;19.40;67.60;;;;;;940217;151;27376;-78
2022/07/11 00:39:00;;;;;;;2.58;2.37;;;19.40;67.70;;;;;;939165;149;27362;-77
2022/07/11 00:41:27;;;;;;;2.08;1.82;;;19.50;67.80;;;;;;921391;154;27377;-75
2022/07/11 00:43:54;;;;;;;2.30;2.17;;;19.50;67.80;;;;;;920113;154;27359;-76
2022/07/11 00:46:20;;;;;;;2.50;2.40;;;19.50;67.90;;;;;;920896;154;27296;-76
2022/07/11 00:48:47;;;;;;;2.62;2.22;;;19.50;68.00;;;;;;919433;154;27326;-75
2022/07/11 00:51:13;;;;;;;1.92;1.82;;;19.50;68.10;;;;;;919795;154;27459;-76
2022/07/11 00:53:40;;;;;;;2.67;2.47;;;19.50;68.90;;;;;;920028;154;27385;-75
2022/07/11 00:56:07;;;;;;;1.98;1.87;;;19.50;68.20;;;;;;918132;154;27335;-75
2022/07/11 00:58:33;;;;;;;2.27;2.17;;;19.50;68.20;;;;;;919814;154;27444;-75
2022/07/11 01:01:00;;;;;;;2.20;2.10;;;19.50;68.30;;;;;;920574;154;27387;-75
2022/07/11 01:03:26;;;;;;;2.22;2.12;;;19.50;68.20;;;;;;919687;154;27364;-75
2022/07/11 01:05:53;;;;;;;2.30;2.20;;;19.50;68.40;;;;;;920310;151;27479;-75
2022/07/11 01:08:20;;;;;;;2.05;1.95;;;19.50;68.50;;;;;;921878;152;27362;-75
2022/07/11 01:10:46;;;;;;;1.95;1.80;;;19.50;68.50;;;;;;922324;152;27411;-75
2022/07/11 01:13:13;;;;;;;2.05;1.95;;;19.50;68.50;;;;;;919592;154;27292;-74
2022/07/11 01:15:39;;;;;;;2.15;2.05;;;19.50;68.60;;;;;;919548;154;27450;-75
2022/07/11 01:18:06;;;;;;;2.77;2.15;;;19.50;68.70;;;;;;921343;152;27480;-74
2022/07/11 01:20:32;;;;;;;2.00;1.90;;;19.50;68.80;;;;;;919108;152;27359;-74
2022/07/11 01:23:08;;;;;;;2.25;2.05;;;19.50;68.80;;;;;;920092;152;27462;-75
2022/07/11 01:25:35;;;;;;;2.08;1.98;;;19.50;68.80;;;;;;921477;154;27354;-75
2022/07/11 01:28:02;;;;;;;2.25;2.10;;;19.50;68.80;;;;;;920163;152;27243;-75
2022/07/11 01:30:28;;;;;;;2.02;1.92;;;19.50;68.90;;;;;;918770;154;27319;-75
2022/07/11 01:32:54;;;;;;;2.33;2.22;;;19.50;69.10;;;;;;926457;154;27430;-74
2022/07/11 01:35:21;;;;;;;2.10;2.00;;;19.50;69.10;;;;;;921312;154;28893;-74
2022/07/11 01:37:48;;;;;;;2.10;2.00;;;19.50;69.20;;;;;;919605;154;27307;-74
2022/07/11 01:40:14;;;;;;;2.55;2.35;;;19.40;69.20;;;;;;921264;153;27430;-74
2022/07/11 01:42:41;;;;;;;2.15;2.05;;;19.40;68.90;;;;;;918344;154;27331;-79
2022/07/11 01:45:07;;;;;;;3.98;1.90;;;19.50;69.20;;;;;;920942;154;27475;-74
2022/07/11 01:47:34;;;;;;;1.80;1.70;;;19.40;69.30;;;;;;938988;151;27338;-74
2022/07/11 01:50:01;;;;;;;2.33;2.12;;;19.40;69.40;;;;;;940367;148;27341;-75
2022/07/11 01:52:28;;;;;;;2.37;2.20;;;19.40;69.50;;;;;;918966;152;27394;-75
2022/07/11 01:54:54;;;;;;;2.20;2.10;;;19.40;69.60;;;;;;929204;151;27332;-75
2022/07/11 01:57:20;;;;;;;1.90;1.80;;;19.40;69.70;;;;;;945571;151;27303;-75
2022/07/11 01:59:47;;;;;;;2.00;1.90;;;19.40;69.70;;;;;;924329;153;27373;-75
2022/07/11 02:02:14;;;;;;;2.95;2.30;;;19.40;69.70;;;;;;926332;154;27303;-75
2022/07/11 02:04:40;;;;;;;2.33;2.12;;;19.40;69.80;;;;;;924713;154;27492;-75
2022/07/11 02:07:07;;;;;;;2.30;2.20;;;19.40;70.00;;;;;;924527;151;27481;-75
2022/07/11 02:09:33;;;;;;;1.82;1.72;;;19.40;70.10;;;;;;930646;152;27337;-75
2022/07/11 02:12:00;;;;;;;2.20;2.00;;;19.40;70.20;;;;;;927322;152;27446;-75
2022/07/11 02:14:26;;;;;;;2.17;2.05;;;19.40;70.20;;;;;;928230;151;27340;-75
2022/07/11 02:16:53;;;;;;;2.20;2.10;;;19.40;70.40;;;;;;922884;151;27814;-75
2022/07/11 02:19:20;;;;;;;3.33;2.08;;;19.40;70.50;;;;;;924099;151;27829;-75
2022/07/11 02:21:47;;;;;;;2.12;1.90;;;19.30;70.60;;;;;;921528;152;27336;-75
2022/07/11 02:24:13;;;;;;;2.30;2.10;;;19.30;70.70;;;;;;940294;148;27335;-75
2022/07/11 02:26:39;;;;;;;2.30;2.20;;;19.30;70.80;;;;;;939487;151;27343;-75
2022/07/11 02:29:06;;;;;;;2.33;2.22;;;19.30;71.00;;;;;;938794;151;27326;-76
2022/07/11 02:31:33;;;;;;;2.33;1.77;;;19.30;71.10;;;;;;922576;154;27368;-76
2022/07/11 02:33:59;;;;;;;2.45;2.25;;;19.30;71.10;;;;;;922603;153;27329;-76
2022/07/11 02:36:26;;;;;;;2.02;1.92;;;19.30;71.10;;;;;;939838;149;27440;-76
2022/07/11 02:38:52;;;;;;;2.55;2.40;;;19.30;71.30;;;;;;940289;148;27367;-76
2022/07/11 02:41:19;;;;;;;1.87;1.77;;;19.30;71.40;;;;;;939713;151;28843;-75
2022/07/11 02:43:46;;;;;;;2.37;2.17;;;19.30;71.10;;;;;;939746;151;27299;-75
2022/07/11 02:46:12;;;;;;;2.50;2.30;;;19.30;71.40;;;;;;938489;151;27333;-75
2022/07/11 02:48:39;;;;;;;2.20;2.10;;;19.30;71.50;;;;;;941196;151;27300;-75
2022/07/11 02:51:05;;;;;;;2.20;2.00;;;19.30;72.40;;;;;;940734;151;27412;-74
2022/07/11 02:53:32;;;;;;;2.85;2.27;;;19.30;71.60;;;;;;938422;151;27457;-73
2022/07/11 02:55:58;;;;;;;2.20;2.05;;;19.30;71.70;;;;;;940325;151;27421;-73
2022/07/11 02:58:25;;;;;;;1.87;1.77;;;19.30;71.70;;;;;;940931;151;27870;-74
2022/07/11 03:00:52;;;;;;;2.10;2.00;;;19.30;71.90;;;;;;941990;151;27322;-74
2022/07/11 03:03:18;;;;;;;2.77;2.55;;;19.30;71.90;;;;;;939585;151;27365;-74
2022/07/11 03:05:45;;;;;;;3.62;2.30;;;19.20;72.00;;;;;;945248;150;27352;-74
2022/07/11 03:08:11;;;;;;;2.50;2.30;;;19.20;72.00;;;;;;939244;148;27366;-74
2022/07/11 03:10:38;;;;;;;2.45;2.30;;;19.20;72.10;;;;;;939842;148;27292;-75
2022/07/11 03:13:05;;;;;;;2.25;2.15;;;19.20;72.20;;;;;;940043;148;27304;-74
2022/07/11 03:15:31;;;;;;;2.20;2.00;;;19.20;72.30;;;;;;937908;149;27422;-75
2022/07/11 03:17:58;;;;;;;2.45;1.92;;;19.20;72.40;;;;;;937338;149;27438;-75
2022/07/11 03:20:24;;;;;;;4.15;2.40;;;19.20;72.50;;;;;;937420;149;27377;-76
2022/07/11 03:22:51;;;;;;;2.10;2.00;;;19.10;72.60;;;;;;936447;149;27464;-76
2022/07/11 03:25:18;;;;;;;2.30;2.20;;;19.10;72.60;;;;;;936430;149;27336;-76
2022/07/11 03:27:44;;;;;;;2.50;2.30;;;19.10;72.70;;;;;;935725;149;27755;-76
2022/07/11 03:30:11;;;;;;;2.30;2.20;;;19.10;72.80;;;;;;936231;149;27398;-76
2022/07/11 03:32:37;;;;;;;2.92;2.30;;;19.10;72.90;;;;;;943205;148;27414;-76
2022/07/11 03:37:49;;;;;;;2.85;2.50;;;19.10;73.10;;;;;;938057;148;27364;-76
2022/07/11 03:40:16;;;;;;;2.50;2.30;;;19.10;73.10;;;;;;940762;148;27410;-76
2022/07/11 03:42:43;;;;;;;2.40;2.22;;;19.10;73.50;;;;;;940041;148;27839;-76
2022/07/11 03:45:09;;;;;;;2.60;2.20;;;19.10;73.50;;;;;;939936;148;27295;-76
2022/07/11 03:47:36;;;;;;;2.20;2.10;;;19.10;73.70;;;;;;938696;148;27341;-76
2022/07/11 03:50:02;;;;;;;2.42;2.27;;;19.10;73.90;;;;;;939877;148;27326;-76
2022/07/11 03:52:28;;;;;;;2.30;2.10;;;19.10;73.90;;;;;;923855;152;27521;-76
2022/07/11 03:54:55;;;;;;;2.33;2.12;;;19.10;74.00;;;;;;934980;150;27449;-76
2022/07/11 03:57:22;;;;;;;2.62;2.42;;;19.10;74.10;;;;;;932745;150;27321;-76
2022/07/11 03:59:48;;;;;;;2.10;1.90;;;19.20;74.30;;;;;;934040;150;27369;-76
2022/07/11 04:02:15;;;;;;;2.15;1.95;;;19.20;74.30;;;;;;924027;150;27305;-76
2022/07/11 04:04:41;;;;;;;2.12;1.92;;;19.20;74.30;;;;;;939198;148;27433;-76
2022/07/11 04:07:08;;;;;;;2.40;2.20;;;19.30;74.40;;;;;;945777;148;27319;-76
2022/07/11 04:09:35;;;;;;;3.17;1.90;;;19.30;74.40;;;;;;954473;146;27318;-76
2022/07/11 04:12:01;;;;;;;2.33;2.15;;;19.30;74.30;;;;;;952441;146;27381;-75
2022/07/11 04:14:28;;;;;;;2.40;2.20;;;19.30;74.30;;;;;;953136;146;27351;-75
2022/07/11 04:16:54;;;;;;;2.90;2.25;;;19.40;74.20;;;;;;953656;146;27329;-75
2022/07/11 04:19:23;;;;;;;2.27;2.10;;;19.40;74.20;;;;;;954287;146;27306;-75
2022/07/11 04:21:48;;;;;;;2.65;2.22;;;19.40;74.10;;;;;;953886;146;27393;-75
2022/07/11 04:24:14;;;;;;;1.95;1.82;;;19.50;74.20;;;;;;955273;146;27425;-75
2022/07/11 04:26:41;;;;;;;2.45;2.22;;;19.50;74.10;;;;;;956429;146;27351;-75
2022/07/11 04:29:07;;;;;;;2.08;1.98;;;19.50;74.00;;;;;;952685;146;27368;-74
2022/07/11 04:31:34;;;;;;;2.00;1.90;;;19.50;74.00;;;;;;953664;146;27462;-74
2022/07/11 04:34:00;;;;;;;2.85;2.02;;;19.60;74.00;;;;;;955654;146;27330;-75
2022/07/11 04:36:27;;;;;;;2.25;2.05;;;19.60;73.90;;;;;;953627;146;27414;-75
2022/07/11 04:38:54;;;;;;;3.15;2.00;;;19.70;74.10;;;;;;956940;146;27361;-75
2022/07/11 04:41:20;;;;;;;2.67;1.90;;;19.70;74.00;;;;;;954139;146;27439;-76
2022/07/11 04:43:47;;;;;;;2.60;2.35;;;19.70;73.90;;;;;;955746;146;27370;-76
2022/07/11 04:46:14;;;;;;;3.22;2.50;;;19.80;74.10;;;;;;954715;146;27380;-76
2022/07/11 04:48:40;;;;;;;1.87;1.77;;;19.80;74.00;;;;;;954302;146;27330;-76
2022/07/11 04:51:07;;;;;;;1.92;1.82;;;19.80;73.90;;;;;;952935;146;27470;-75
2022/07/11 04:53:33;;;;;;;1.90;1.80;;;19.90;73.90;;;;;;954350;146;27362;-76
2022/07/11 04:56:00;;;;;;;2.30;2.10;;;19.90;74.00;;;;;;956509;146;27338;-76
2022/07/11 04:58:27;;;;;;;2.30;2.20;;;19.90;73.90;;;;;;957005;146;27994;-77
2022/07/11 05:00:53;;;;;;;2.22;2.02;;;20.00;73.90;;;;;;945702;149;27355;-77
2022/07/11 05:03:20;;;;;;;1.77;1.65;;;20.00;73.90;;;;;;938715;149;27358;-76
2022/07/11 05:05:46;;;;;;;2.10;1.90;;;20.10;73.90;;;;;;955177;146;27462;-77
2022/07/11 05:08:13;;;;;;;2.80;2.00;;;20.10;73.80;;;;;;942962;146;27881;-77
2022/07/11 05:10:39;;;;;;;1.80;1.70;;;20.20;74.60;;;;;;939285;148;27301;-77
2022/07/11 05:13:06;;;;;;;2.33;2.08;;;20.20;73.70;;;;;;938550;148;27318;-76
2022/07/11 05:15:32;;;;;;;1.80;1.70;;;20.30;73.60;;;;;;938374;148;27416;-76
2022/07/11 05:17:59;;;;;;;1.90;1.80;;;20.40;73.60;;;;;;938549;148;27350;-76
2022/07/11 05:20:26;;;;;;;2.10;2.00;;;20.40;73.60;;;;;;938336;148;27425;-76
2022/07/11 05:22:52;;;;;;;1.85;1.72;;;20.50;73.60;;;;;;938872;148;27431;-76
2022/07/11 05:25:19;;;;;;;1.80;1.70;;;20.60;73.50;;;;;;939981;149;27358;-76
2022/07/11 05:27:45;;;;;;;2.12;2.00;;;20.60;73.30;;;;;;937470;149;27285;-76
2022/07/11 05:30:12;;;;;;;2.02;1.82;;;20.70;73.20;;;;;;936971;149;27385;-76
2022/07/11 05:32:39;;;;;;;2.10;2.00;;;20.80;73.10;;;;;;937489;149;27420;-76
2022/07/11 05:35:05;;;;;;;2.05;1.95;;;20.90;72.80;;;;;;936693;149;27403;-76
2022/07/11 05:37:32;;;;;;;1.90;1.80;;;20.90;72.60;;;;;;936464;149;27341;-75
2022/07/11 05:39:58;;;;;;;3.85;2.22;;;21.00;72.30;;;;;;937911;149;27430;-74
2022/07/11 05:42:25;;;;;;;2.95;1.98;;;21.10;72.00;;;;;;935091;149;27426;-76
2022/07/11 05:44:52;;;;;;;2.15;1.80;;;21.10;71.80;;;;;;935375;149;27364;-77
2022/07/11 05:47:18;;;;;;;2.98;1.98;;;21.20;71.80;;;;;;937504;149;27938;-77
2022/07/11 05:49:45;;;;;;;3.05;1.80;;;21.20;71.70;;;;;;937932;149;27342;-76
2022/07/11 05:52:11;;;;;;;1.90;1.72;;;21.30;71.70;;;;;;936740;149;27357;-76
2022/07/11 05:54:38;;;;;;;1.82;1.50;;;21.30;71.50;;;;;;938765;149;27334;-76
2022/07/11 05:57:05;;;;;;;4.08;1.82;;;21.40;71.50;;;;;;935063;149;27395;-76
2022/07/11 05:59:31;;;;;;;1.92;1.75;;;21.50;71.50;;;;;;937490;149;27427;-76
2022/07/11 06:01:58;;;;;;;3.67;1.87;;;21.60;71.40;;;;;;936552;149;27299;-76
2022/07/11 06:04:24;;;;;;;2.55;1.92;;;21.70;71.00;;;;;;938113;149;27325;-76
2022/07/11 06:06:51;;;;;;;2.05;1.37;;;21.80;70.70;;;;;;938121;150;27368;-77
2022/07/11 06:09:17;;;;;;;1.70;1.50;;;21.90;70.30;;;;;;944241;148;27364;-76
2022/07/11 06:11:44;;;;;;;1.70;1.60;;;22.00;70.10;;;;;;941766;148;27383;-77
2022/07/11 06:14:11;;;;;;;1.98;1.60;;;22.00;69.90;;;;;;942726;148;27363;-75
2022/07/11 06:16:37;;;;;;;1.80;1.70;;;22.10;69.60;;;;;;941527;148;27405;-75
2022/07/11 06:19:04;;;;;;;2.10;1.80;;;22.20;69.50;;;;;;941028;149;27418;-74
2022/07/11 06:21:30;;;;;;;2.70;1.62;;;22.30;69.40;;;;;;930962;149;27847;-75
2022/07/11 06:23:57;;;;;;;1.75;1.65;;;22.40;69.30;;;;;;942437;148;27379;-74
2022/07/11 06:26:24;;;;;;;2.77;2.00;;;22.40;68.80;;;;;;930347;149;27448;-74
2022/07/11 06:28:50;;;;;;;2.90;1.65;;;22.50;68.60;;;;;;948597;146;27384;-74
2022/07/11 06:33:54;;;;;;;1.52;1.42;;;22.60;68.30;;;;;;973986;144;37217;-73
2022/07/11 06:36:19;;;;;;;1.67;1.57;;;22.70;68.00;;;;;;977564;144;27230;-73
2022/07/11 06:38:44;;;;;;;1.70;1.60;;;22.90;68.30;;;;;;979502;145;27617;-74
2022/07/11 06:41:11;;;;;;;1.65;1.50;;;23.00;69.60;;;;;;979299;144;27276;-71
2022/07/11 06:43:37;;;;;;;1.60;1.40;;;23.50;72.20;;;;;;978883;144;27366;-72
2022/07/11 06:46:04;;;;;;;3.02;1.65;;;24.20;75.60;;;;;;978974;144;27297;-73
2022/07/11 06:48:30;;;;;;;1.62;1.52;;;25.20;76.60;;;;;;978374;144;27287;-71
2022/07/11 06:50:57;;;;;;;2.27;1.62;;;26.30;74.60;;;;;;973853;144;27257;-72
2022/07/11 06:53:23;;;;;;;1.52;1.42;;;27.40;70.80;;;;;;941499;149;27368;-72
2022/07/11 06:55:50;;;;;;;2.27;1.30;;;28.40;66.60;;;;;;938313;149;27362;-73
2022/07/11 06:58:32;;;;;;;2.02;1.40;;;29.10;63.20;;;;;;940761;149;27343;-74
2022/07/11 07:01:01;;;;;;;2.12;1.30;;;29.70;60.50;;;;;;940461;150;27353;-74
2022/07/11 07:03:28;;;;;;;2.10;1.50;;;29.90;57.80;;;;;;940804;149;27321;-73
2022/07/11 07:05:55;;;;;;;1.60;1.50;;;30.00;56.50;;;;;;941183;149;27388;-75
2022/07/11 07:08:21;;;;;;;2.52;1.40;;;29.90;55.60;;;;;;941298;146;27369;-74
2022/07/11 07:10:47;;;;;;;2.12;1.40;;;29.70;55.10;;;;;;938650;147;27666;-74
2022/07/11 07:13:14;;;;;;;2.08;1.40;;;29.50;54.80;;;;;;937644;146;27308;-75
2022/07/11 07:15:41;;;;;;;1.60;1.50;;;29.30;54.80;;;;;;940030;149;27243;-74
2022/07/11 07:18:07;;;;;;;1.90;1.80;;;29.10;55.10;;;;;;939750;146;27371;-75
2022/07/11 07:20:34;;;;;;;2.12;1.60;;;29.00;55.30;;;;;;939239;146;27383;-74
2022/07/11 07:23:00;;;;;;;2.40;1.50;;;29.00;55.60;;;;;;938766;148;27335;-75
2022/07/11 07:25:27;;;;;;;1.37;1.27;;;29.00;55.60;;;;;;940387;149;27362;-75
2022/07/11 07:27:53;;;;;;;1.92;1.67;;;29.00;55.40;;;;;;940732;149;27299;-75
2022/07/11 07:30:20;;;;;;;2.05;1.50;;;29.10;55.10;;;;;;940782;149;27327;-75
2022/07/11 07:32:47;;;;;;;1.72;1.52;;;29.20;54.90;;;;;;938305;149;27324;-74
2022/07/11 07:35:13;;;;;;;1.92;1.40;;;29.30;54.70;;;;;;932916;150;27350;-75
2022/07/11 07:37:40;;;;;;;2.17;1.35;;;29.40;54.40;;;;;;932208;150;27338;-75
2022/07/11 07:40:06;;;;;;;1.60;1.50;;;29.40;53.90;;;;;;933739;150;27383;-75
2022/07/11 07:42:33;;;;;;;1.52;1.42;;;29.50;53.80;;;;;;932321;147;27415;-75
2022/07/11 07:45:00;;;;;;;1.77;1.20;;;29.50;53.60;;;;;;934064;149;27272;-75
2022/07/11 07:47:27;;;;;;;2.30;1.20;;;29.50;53.60;;;;;;934883;149;27335;-74
2022/07/11 07:49:53;;;;;;;2.33;1.25;;;29.50;53.40;;;;;;933861;151;27934;-75
2022/07/11 07:52:19;;;;;;;1.52;1.42;;;29.50;53.30;;;;;;934845;147;27411;-75
2022/07/11 07:54:46;;;;;;;1.25;1.15;;;29.40;52.90;;;;;;933142;150;27381;-75
2022/07/11 07:57:13;;;;;;;1.87;1.32;;;29.40;52.80;;;;;;933471;147;27329;-74
2022/07/11 07:59:39;;;;;;;1.40;1.30;;;29.30;52.40;;;;;;933499;147;27412;-74
2022/07/11 08:02:06;;;;;;;2.17;1.60;;;29.20;52.30;;;;;;934434;147;27762;-75
2022/07/11 08:04:32;;;;;;;1.30;1.20;;;29.10;52.30;;;;;;919795;150;28125;-75
2022/07/11 08:06:59;;;;;;;1.77;1.40;;;28.90;52.10;;;;;;918547;150;27311;-75
2022/07/11 08:09:26;;;;;;;1.67;1.57;;;28.80;52.10;;;;;;935617;148;27326;-74
2022/07/11 08:11:52;;;;;;;2.35;1.50;;;28.60;52.00;;;;;;934821;148;27439;-74
2022/07/11 08:14:19;;;;;;;2.02;1.62;;;28.50;52.30;;;;;;933237;148;27383;-75
2022/07/11 08:16:45;;;;;;;1.40;1.30;;;28.40;52.40;;;;;;935465;148;27421;-75
2022/07/11 08:19:12;;;;;;;3.80;1.65;;;28.30;52.50;;;;;;934186;148;27267;-74
2022/07/11 08:21:38;;;;;;;1.50;1.40;;;28.10;52.60;;;;;;932504;148;27501;-74
2022/07/11 08:24:05;;;;;;;1.45;1.35;;;28.00;52.60;;;;;;936594;148;27315;-75
2022/07/11 08:26:32;;;;;;;2.02;1.70;;;27.90;52.50;;;;;;933496;148;27399;-74
2022/07/11 08:28:58;;;;;;;1.20;1.10;;;27.80;52.70;;;;;;935293;148;27359;-74
2022/07/11 08:31:25;;;;;;;2.17;1.85;;;27.70;52.60;;;;;;917353;151;28499;-75
2022/07/11 08:33:52;;;;;;;1.20;1.15;;;27.60;52.70;;;;;;939301;146;27349;-75
2022/07/11 08:36:18;;;;;;;2.25;1.40;;;27.50;52.70;;;;;;945349;146;27374;-76
2022/07/11 08:38:46;;;;;;;1.40;1.30;;;27.30;52.80;;;;;;946821;147;27298;-78
2022/07/11 08:41:11;;;;;;;1.60;1.50;;;27.30;53.20;;;;;;949748;147;27468;-75
2022/07/11 08:43:38;;;;;;;2.12;1.27;;;27.30;53.40;;;;;;948604;147;27374;-75
2022/07/11 08:46:04;;;;;;;0.95;0.95;;;27.30;53.40;;;;;;947800;147;27338;-75
2022/07/11 08:48:31;;;;;;;1.32;1.22;;;27.40;53.40;;;;;;947450;147;27290;-75
2022/07/11 08:50:58;;;;;;;1.27;1.17;;;27.40;53.30;;;;;;948358;147;27403;-74
2022/07/11 08:53:24;;;;;;;2.62;1.12;;;27.50;53.10;;;;;;947752;147;27380;-75
2022/07/11 08:55:51;;;;;;;1.57;1.30;;;27.50;52.80;;;;;;947702;147;27382;-75
2022/07/11 08:58:17;;;;;;;1.75;1.65;;;27.50;52.60;;;;;;947662;147;27294;-75
2022/07/11 09:00:44;;;;;;;1.20;1.10;;;27.40;52.60;;;;;;948648;147;27334;-74
2022/07/11 09:03:10;;;;;;;2.05;1.32;;;27.40;52.30;;;;;;949044;147;28418;-74
2022/07/11 09:05:37;;;;;;;1.80;1.30;;;27.20;52.10;;;;;;946465;147;27319;-75
2022/07/11 09:08:04;;;;;;;1.62;1.52;;;27.20;52.30;;;;;;948433;147;28591;-74
2022/07/11 09:10:30;;;;;;;2.37;1.60;;;27.00;52.40;;;;;;946753;147;27383;-74
2022/07/11 09:13:03;;;;;;;1.37;1.22;;;26.90;52.60;;;;;;951372;147;27334;-74
2022/07/11 09:15:35;;;;;;;1.62;1.30;;;26.80;53.10;;;;;;947506;147;27387;-74
2022/07/11 09:18:02;;;;;;;1.40;1.30;;;26.80;53.40;;;;;;948988;147;27387;-74
2022/07/11 09:25:19;;;;;;;1.50;1.40;;;26.80;53.70;;;;;;948842;147;27362;-74
2022/07/11 09:25:43;;;;;;;1.40;1.30;;;27.00;53.90;;;;;;948022;147;27302;-75
2022/07/11 09:28:10;;;;;;;1.57;1.37;;;27.20;53.30;;;;;;949347;147;27342;-74
2022/07/11 09:30:43;;;;;;;1.45;1.35;;;27.20;53.10;;;;;;950385;147;27334;-74
2022/07/11 09:33:11;;;;;;;1.65;1.55;;;27.30;53.00;;;;;;948480;147;27452;-74
2022/07/11 09:35:38;;;;;;;1.17;1.07;;;27.40;52.80;;;;;;937728;148;27378;-74
2022/07/11 09:38:04;;;;;;;1.55;1.45;;;27.50;52.70;;;;;;939565;148;27347;-74
2022/07/11 09:40:31;;;;;;;1.50;1.40;;;27.60;53.00;;;;;;920094;151;27475;-74
2022/07/11 09:42:57;;;;;;;1.27;1.27;;;27.80;53.10;;;;;;939461;147;27370;-74
2022/07/11 09:45:24;;;;;;;1.20;1.15;;;28.20;53.90;;;;;;932323;150;27342;-74
2022/07/11 09:47:50;;;;;;;1.05;1.05;;;28.60;54.20;;;;;;921888;151;27791;-74
2022/07/11 09:50:23;;;;;;;0.98;0.95;;;29.40;54.30;;;;;;921645;151;27353;-74
2022/07/11 09:53:08;;;;;;;0.95;0.78;;;30.20;54.00;;;;;;936926;148;27469;-74
2022/07/11 09:55:37;;;;;;;1.32;1.05;;;31.10;53.60;;;;;;937226;148;26217;-74
2022/07/11 09:58:03;;;;;;;1.37;0.80;;;32.10;53.10;;;;;;938750;148;26345;-75
2022/07/11 10:00:30;;;;;;;1.10;0.95;;;33.10;52.40;;;;;;938363;147;26321;-74
2022/07/11 10:02:57;;;;;;;1.62;1.00;;;34.10;51.30;;;;;;938637;147;26223;-74
2022/07/11 10:05:23;;;;;;;0.80;0.70;;;35.00;49.60;;;;;;939438;148;26328;-74
2022/07/11 10:07:50;;;;;;;1.02;0.93;;;35.60;47.60;;;;;;938300;148;26344;-74
2022/07/11 10:10:16;;;;;;;0.98;0.98;;;36.00;45.40;;;;;;924983;150;26300;-74
2022/07/11 10:12:48;;;;;;;1.27;1.20;;;36.20;44.00;;;;;;937347;147;28298;-74
2022/07/11 10:15:12;;;;;;;0.70;0.70;;;36.10;43.10;;;;;;937197;147;27350;-74
2022/07/11 10:18:00;;;;;;;1.30;0.95;;;35.90;43.00;;;;;;939417;147;27405;-75
2022/07/11 10:20:45;;;;;;;2.60;1.20;;;35.70;42.90;;;;;;937777;147;27341;-75
2022/07/11 10:23:21;;;;;;;1.80;1.10;;;35.50;43.00;;;;;;931376;150;27371;-74
2022/07/11 10:25:53;;;;;;;0.93;0.93;;;35.40;43.10;;;;;;936753;147;27328;-74
2022/07/11 10:28:38;;;;;;;1.75;1.10;;;35.20;43.00;;;;;;937580;147;27440;-73
2022/07/11 10:31:04;;;;;;;2.22;1.00;;;35.00;42.60;;;;;;937589;147;27457;-74
2022/07/11 10:33:31;;;;;;;1.37;0.95;;;34.70;42.70;;;;;;937268;148;27293;-74
2022/07/11 10:35:58;;;;;;;1.00;1.00;;;34.50;42.90;;;;;;937519;148;27539;-74
2022/07/11 10:38:24;;;;;;;0.90;0.90;;;34.30;42.90;;;;;;948847;145;27494;-74
2022/07/11 10:40:54;;;;;;;1.30;1.20;;;34.10;42.80;;;;;;950772;145;27399;-73
2022/07/11 10:43:26;;;;;;;1.20;1.20;;;33.80;42.40;;;;;;947537;145;27399;-74
2022/07/11 10:45:56;;;;;;;0.90;0.90;;;33.60;42.20;;;;;;950090;145;27272;-74
2022/07/11 10:48:22;;;;;;;1.10;1.10;;;33.30;42.50;;;;;;951162;145;27332;-74
2022/07/11 10:50:49;;;;;;;1.25;1.15;;;33.00;42.70;;;;;;949960;145;27442;-74
2022/07/11 10:53:21;;;;;;;1.05;1.05;;;32.80;42.80;;;;;;948973;145;27349;-73
2022/07/11 10:55:47;;;;;;;1.00;1.00;;;32.50;42.60;;;;;;949842;145;27400;-73
2022/07/11 10:58:16;;;;;;;1.47;1.37;;;32.30;42.80;;;;;;947355;145;27793;-73
2022/07/11 11:00:43;;;;;;;1.00;1.00;;;32.00;43.00;;;;;;949970;145;27349;-73
2022/07/11 11:03:12;;;;;;;1.60;1.17;;;31.70;43.00;;;;;;950924;145;27295;-73
2022/07/11 11:05:43;;;;;;;1.25;1.12;;;31.30;43.10;;;;;;949184;145;27405;-73
2022/07/11 11:08:35;;;;;;;1.05;1.02;;;31.10;43.50;;;;;;950719;145;27345;-73
2022/07/11 11:11:04;;;;;;;0.85;0.85;;;30.70;43.70;;;;;;948317;145;27854;-73
2022/07/11 11:13:31;;;;;;;1.25;1.25;;;30.50;44.20;;;;;;951481;145;27327;-73
2022/07/11 11:15:58;;;;;;;1.07;1.02;;;30.20;44.40;;;;;;949908;145;27307;-73
2022/07/11 11:18:24;;;;;;;1.95;1.50;;;30.10;44.90;;;;;;949098;145;27368;-73
2022/07/11 11:21:03;;;;;;;1.10;1.10;;;29.90;45.10;;;;;;949584;145;27342;-73
2022/07/11 11:23:38;;;;;;;2.20;1.40;;;29.90;45.30;;;;;;948421;145;27765;-73
2022/07/11 11:26:10;;;;;;;1.40;1.30;;;29.90;45.50;;;;;;949507;145;27315;-74
2022/07/11 11:28:36;;;;;;;1.30;1.20;;;29.80;45.50;;;;;;949401;145;27367;-73
2022/07/11 11:31:03;;;;;;;1.40;1.30;;;29.80;45.50;;;;;;949431;145;27281;-73
2022/07/11 11:33:29;;;;;;;1.35;1.25;;;29.70;45.50;;;;;;949210;145;27713;-73
2022/07/11 11:36:02;;;;;;;1.20;1.20;;;29.60;45.50;;;;;;950732;145;27328;-73
2022/07/11 11:38:29;;;;;;;1.77;1.05;;;29.50;45.50;;;;;;949996;145;27424;-73
2022/07/11 11:40:55;;;;;;;1.07;1.07;;;29.40;45.40;;;;;;950480;145;27417;-73
2022/07/11 11:43:22;;;;;;;1.32;1.32;;;29.30;45.40;;;;;;949436;145;27349;-73
2022/07/11 11:45:49;;;;;;;2.12;1.20;;;29.20;45.60;;;;;;951038;145;27302;-74
2022/07/11 11:48:30;;;;;;;1.80;1.30;;;29.00;45.60;;;;;;950424;145;27321;-73
2022/07/11 11:51:06;;;;;;;1.22;1.15;;;28.90;45.90;;;;;;950327;145;27300;-75
2022/07/11 11:53:39;;;;;;;2.33;1.92;;;28.80;46.10;;;;;;951301;145;27461;-75
2022/07/11 11:56:29;;;;;;;3.02;1.50;;;28.70;46.10;;;;;;951480;145;27413;-75
2022/07/11 11:58:52;;;;;;;2.67;1.17;;;28.60;46.10;;;;;;950900;145;27698;-74
2022/07/11 12:01:22;;;;;;;1.77;1.30;;;28.50;46.30;;;;;;953065;145;27838;-75
2022/07/11 12:03:52;;;;;;;1.30;1.20;;;28.50;46.70;;;;;;950451;145;27319;-75
2022/07/11 12:06:18;;;;;;;1.20;1.20;;;28.40;46.90;;;;;;952432;145;27349;-76
2022/07/11 12:08:44;;;;;;;1.05;1.05;;;28.50;47.00;;;;;;949793;145;27786;-76
2022/07/11 12:11:14;;;;;;;1.10;1.00;;;28.50;47.00;;;;;;949086;145;27417;-76
2022/07/11 12:13:40;;;;;;;1.27;1.17;;;28.50;47.00;;;;;;949490;145;27346;-76
2022/07/11 12:19:06;;;;;;;1.12;1.07;;;28.50;46.90;;;;;;951403;145;27492;-76
2022/07/11 12:21:30;;;;;;;1.72;1.30;;;28.60;47.00;;;;;;949562;145;27425;-76
2022/07/11 12:24:00;;;;;;;1.10;1.10;;;28.60;47.10;;;;;;949932;145;27298;-76
2022/07/11 12:26:32;;;;;;;1.20;1.20;;;28.60;47.40;;;;;;950762;145;27291;-74
2022/07/11 12:29:19;;;;;;;1.20;1.10;;;28.70;47.30;;;;;;953718;145;27258;-74
2022/07/11 12:31:40;;;;;;;2.75;1.40;;;28.80;47.20;;;;;;949614;145;27358;-74
2022/07/11 12:34:06;;;;;;;2.67;1.50;;;28.90;47.20;;;;;;951502;145;27310;-75
2022/07/11 12:36:33;;;;;;;1.00;1.00;;;29.10;47.20;;;;;;950281;145;27361;-75
2022/07/11 12:39:00;;;;;;;3.35;1.80;;;29.20;47.30;;;;;;951245;145;27318;-74
2022/07/11 12:41:26;;;;;;;1.60;1.50;;;29.40;47.30;;;;;;948880;145;27281;-74
2022/07/11 12:46:38;;;;;;;1.35;1.25;;;29.80;47.00;;;;;;951025;145;27470;-75
2022/07/11 12:49:04;;;;;;;1.27;1.15;;;30.10;46.60;;;;;;949098;145;27444;-75
2022/07/11 12:51:40;;;;;;;1.77;1.20;;;30.20;46.00;;;;;;950006;145;27318;-75
2022/07/11 12:54:09;;;;;;;1.12;1.02;;;30.30;45.60;;;;;;951594;145;27342;-74
2022/07/11 12:56:36;;;;;;;1.25;1.17;;;30.30;45.40;;;;;;951413;145;27341;-74
2022/07/11 12:59:02;;;;;;;1.12;1.10;;;30.30;45.30;;;;;;949471;145;28058;-75
2022/07/11 13:01:29;;;;;;;1.10;1.10;;;30.30;45.30;;;;;;948835;145;27290;-74
2022/07/11 13:03:55;;;;;;;1.82;1.20;;;30.30;45.30;;;;;;948046;145;27403;-77